This is the latest recevied weather packets stored in our database for station/object Krauchnws. If no packets are shown the sender has not sent any weather packets the latest 10 day(s).
| Time | Temp. | Humidity | Pressure | Rain* | Wind** | Luminosity | Snow |
|---|---|---|---|---|---|---|---|
| 1778027529 | 9.44° C | 94% | 1007.3 hPa | 0 mm | - | - | - |
| 1778025729 | 10° C | 93% | 1007.4 hPa | 0 mm | - | - | - |
| 1778023929 | 10° C | 93% | 1007.6 hPa | 0 mm | - | - | - |
| 1778022129 | 10° C | 93% | 1007.6 hPa | 0 mm | - | - | - |
| 1778020330 | 9.44° C | 93% | 1007.8 hPa | 0 mm | - | - | - |
| 1778018529 | 10° C | 92% | 1007.8 hPa | 0 mm | - | - | - |
| 1778016731 | 10.56° C | 90% | 1008 hPa | 0.51 mm | - | - | - |
| 1778014935 | 10.56° C | 89% | 1008 hPa | 0.51 mm | - | - | - |
| 1778013129 | 11.11° C | 88% | 1007.6 hPa | 0.51 mm | - | - | - |
| 1778011330 | 11.67° C | 87% | 1007.6 hPa | 0.51 mm | - | - | - |
| 1778009529 | 11.67° C | 86% | 1007.4 hPa | 0.51 mm | - | - | - |
| 1778007735 | 12.22° C | 87% | 1007 hPa | 0.51 mm | - | - | - |
| 1778005932 | 12.78° C | 84% | 1006.6 hPa | 0.51 mm | - | - | - |
| 1778004131 | 13.89° C | 79% | 1006.4 hPa | 0.51 mm | - | - | - |
| 1778002330 | 15° C | 75% | 1006.1 hPa | 0.51 mm | - | - | - |
| 1778000530 | 15° C | 73% | 1005.8 hPa | 0.51 mm | - | - | - |
| 1777998731 | 15.56° C | 70% | 1006 hPa | 0.51 mm | - | - | - |
| 1777995130 | 16.67° C | 72% | 1005.9 hPa | 0.51 mm | - | - | - |
| 1777993336 | 15° C | 76% | 1005.8 hPa | 0.51 mm | - | - | - |
| 1777991532 | 15° C | 75% | 1005.8 hPa | 0.51 mm | - | - | - |
| 1777989730 | 14.44° C | 78% | 1005.9 hPa | 0.51 mm | - | - | - |
| 1777987930 | 13.89° C | 82% | 1006 hPa | 0.51 mm | - | - | - |
| 1777986130 | 13.33° C | 85% | 1006.2 hPa | 0.51 mm | - | - | - |
| 1777984330 | 13.33° C | 90% | 1006.7 hPa | 0.51 mm | - | - | - |
| 1777982530 | 13.33° C | 86% | 1006.9 hPa | 0.25 mm | - | - | - |
* Rain since midnight (hover to see other rain measurements)
** Current wind speed in m/s (hover to see current wind gust speed)